Time;durP1;ratioP1;P1;durP2;ratioP2;P2;SDS_P1;SDS_P2;PMS_P1;PMS_P2;Temp;Humidity;BMP_temperature;BMP_pressure;BME280_temperature;BME280_humidity;BME280_pressure;Samples;Min_cycle;Max_cycle;Signal;HPM_P1;HPM_P2
2022/10/13 00:00:52;;;;;;;4.53;3.10;;;11.10;99.90;;;;;;5028055;28;20615;-81
2022/10/13 00:03:19;;;;;;;5.60;4.30;;;11.20;99.90;;;;;;5028452;28;20659;-80
2022/10/13 00:05:48;;;;;;;5.67;3.80;;;11.20;99.90;;;;;;5028568;28;20964;-81
2022/10/13 00:08:18;;;;;;;5.00;3.10;;;11.20;99.90;;;;;;5027857;28;20634;-81
2022/10/13 00:10:45;;;;;;;4.47;4.07;;;11.30;99.90;;;;;;5026974;28;20634;-81
2022/10/13 00:13:14;;;;;;;6.47;3.67;;;11.20;99.90;;;;;;5028349;28;20623;-82
2022/10/13 00:15:41;;;;;;;10.13;5.73;;;11.30;99.90;;;;;;5028147;28;20650;-81
2022/10/13 00:18:08;;;;;;;4.23;3.23;;;11.30;99.90;;;;;;5028307;28;20973;-80
2022/10/13 00:20:40;;;;;;;6.57;4.60;;;11.30;99.90;;;;;;5028767;28;20627;-80
2022/10/13 00:23:07;;;;;;;7.47;4.17;;;11.40;99.90;;;;;;5028618;28;21407;-81
2022/10/13 00:25:34;;;;;;;7.47;4.57;;;11.40;99.90;;;;;;5028534;28;20631;-79
2022/10/13 00:28:01;;;;;;;4.43;3.53;;;11.50;99.90;;;;;;5027721;28;20626;-81
2022/10/13 00:30:29;;;;;;;4.27;3.87;;;11.50;99.90;;;;;;5028560;28;20625;-80
2022/10/13 00:32:56;;;;;;;4.30;3.90;;;11.50;99.90;;;;;;5028077;28;20673;-81
2022/10/13 00:35:22;;;;;;;8.00;4.80;;;11.60;99.90;;;;;;5028643;28;20629;-81
2022/10/13 00:37:49;;;;;;;4.10;3.70;;;11.60;99.90;;;;;;5027628;28;20628;-79
2022/10/13 00:40:16;;;;;;;7.17;4.97;;;11.60;99.90;;;;;;5012523;28;20646;-81
2022/10/13 00:42:43;;;;;;;5.33;4.23;;;11.60;99.90;;;;;;5008281;28;21173;-81
2022/10/13 00:45:26;;;;;;;6.03;5.43;;;11.60;99.90;;;;;;5008541;28;20713;-81
2022/10/13 00:47:57;;;;;;;7.57;4.93;;;11.60;99.90;;;;;;5009370;28;20647;-80
2022/10/13 00:50:28;;;;;;;6.37;5.13;;;11.50;99.90;;;;;;5028272;28;20627;-81
2022/10/13 00:52:57;;;;;;;9.10;6.60;;;11.60;99.90;;;;;;5027868;28;20623;-81
2022/10/13 00:55:28;;;;;;;6.33;4.00;;;11.60;99.90;;;;;;5027983;28;21233;-81
2022/10/13 00:57:58;;;;;;;7.33;4.63;;;11.60;99.90;;;;;;5027690;28;20637;-81
2022/10/13 01:00:25;;;;;;;7.10;4.53;;;11.70;99.90;;;;;;5028489;28;20626;-80
2022/10/13 01:02:53;;;;;;;7.57;4.80;;;11.50;99.90;;;;;;5027782;28;20625;-80
2022/10/13 01:05:21;;;;;;;7.10;4.37;;;11.60;99.90;;;;;;5026476;28;20678;-81
2022/10/13 01:07:49;;;;;;;5.80;4.90;;;11.60;99.90;;;;;;5027464;28;20627;-81
2022/10/13 01:10:23;;;;;;;5.03;3.27;;;11.60;99.90;;;;;;5026759;28;21165;-81
2022/10/13 01:13:00;;;;;;;8.47;4.67;;;11.60;99.90;;;;;;5027958;28;20652;-80
2022/10/13 01:15:31;;;;;;;8.13;6.07;;;11.40;99.90;;;;;;5027812;28;21025;-80
2022/10/13 01:18:09;;;;;;;5.87;3.60;;;11.70;99.90;;;;;;5027058;28;21208;-81
2022/10/13 01:20:50;;;;;;;6.40;5.27;;;11.70;99.90;;;;;;5028040;28;20728;-81
2022/10/13 01:23:49;;;;;;;5.93;5.30;;;11.70;99.90;;;;;;5027904;28;21193;-80
2022/10/13 01:26:50;;;;;;;7.40;5.30;;;11.70;99.90;;;;;;5006863;28;21189;-80
2022/10/13 01:29:43;;;;;;;7.57;5.57;;;11.60;99.90;;;;;;5027664;28;20638;-80
2022/10/13 01:32:17;;;;;;;7.50;4.17;;;11.50;99.90;;;;;;5027782;28;20613;-80
2022/10/13 01:34:52;;;;;;;5.47;4.07;;;11.50;99.90;;;;;;5028021;28;20643;-80
2022/10/13 01:37:26;;;;;;;8.73;5.80;;;11.50;99.90;;;;;;5027151;28;21114;-80
2022/10/13 01:39:57;;;;;;;4.83;4.17;;;11.50;99.90;;;;;;5015114;28;20737;-80
2022/10/13 01:42:31;;;;;;;6.27;4.07;;;11.50;99.90;;;;;;5008007;28;20616;-80
2022/10/13 01:45:02;;;;;;;7.50;4.87;;;11.60;99.90;;;;;;5007857;28;20636;-81
2022/10/13 01:47:31;;;;;;;10.40;3.77;;;11.60;99.90;;;;;;5009894;28;21209;-81
2022/10/13 01:50:00;;;;;;;10.73;5.80;;;11.70;99.90;;;;;;5011948;28;20619;-81
2022/10/13 01:52:33;;;;;;;5.63;4.77;;;11.70;99.90;;;;;;5011642;28;20711;-80
2022/10/13 01:55:05;;;;;;;9.33;5.73;;;11.70;99.90;;;;;;5012007;28;20703;-80
2022/10/13 01:57:34;;;;;;;7.00;5.10;;;11.80;99.90;;;;;;5010681;28;20627;-80
2022/10/13 02:00:06;;;;;;;8.10;5.93;;;11.70;99.90;;;;;;5029600;28;20627;-81
2022/10/13 02:02:38;;;;;;;7.07;5.60;;;11.80;99.90;;;;;;5032257;28;20653;-81
2022/10/13 02:05:14;;;;;;;5.43;4.90;;;11.80;99.90;;;;;;5031195;28;20661;-79
2022/10/13 02:07:45;;;;;;;4.87;3.60;;;11.80;99.90;;;;;;5030653;28;20622;-81
2022/10/13 02:10:17;;;;;;;8.70;4.90;;;11.90;99.90;;;;;;5030052;28;21252;-81
2022/10/13 02:12:49;;;;;;;4.47;4.03;;;11.90;99.90;;;;;;5030921;28;20600;-81
2022/10/13 02:15:21;;;;;;;4.87;4.17;;;11.90;99.90;;;;;;5031426;28;20711;-82
2022/10/13 02:17:49;;;;;;;9.30;4.83;;;11.90;99.90;;;;;;5030192;28;20716;-80
2022/10/13 02:20:19;;;;;;;7.30;5.03;;;11.90;99.90;;;;;;5030889;28;21135;-82
2022/10/13 02:22:50;;;;;;;6.53;5.90;;;11.90;99.90;;;;;;5030911;28;21072;-81
2022/10/13 02:25:17;;;;;;;14.67;6.50;;;11.90;99.90;;;;;;5011134;28;20647;-81
2022/10/13 02:27:44;;;;;;;5.87;4.20;;;11.90;99.90;;;;;;5010602;28;20612;-81
2022/10/13 02:30:23;;;;;;;6.47;4.97;;;11.90;99.90;;;;;;5010641;28;20638;-81
2022/10/13 02:32:50;;;;;;;6.50;5.10;;;11.90;99.90;;;;;;5010776;28;20761;-82
2022/10/13 02:35:18;;;;;;;4.80;4.27;;;11.90;99.90;;;;;;5011364;28;20743;-81
2022/10/13 02:37:45;;;;;;;7.43;5.30;;;12.00;99.90;;;;;;5016953;28;21188;-81
2022/10/13 02:40:13;;;;;;;5.37;4.60;;;12.00;99.90;;;;;;5030486;28;20993;-81
2022/10/13 02:42:40;;;;;;;6.47;5.83;;;12.00;99.90;;;;;;5029017;28;20627;-81
2022/10/13 02:45:08;;;;;;;5.87;4.33;;;12.10;99.90;;;;;;5030341;28;20635;-81
2022/10/13 02:47:37;;;;;;;6.03;3.63;;;12.00;99.90;;;;;;5029949;28;20609;-82
2022/10/13 02:50:04;;;;;;;6.70;4.60;;;11.90;99.90;;;;;;5030293;28;20661;-82
2022/10/13 02:52:31;;;;;;;5.33;4.57;;;12.10;99.90;;;;;;5030295;28;20605;-81
2022/10/13 02:54:59;;;;;;;8.17;5.77;;;12.10;99.90;;;;;;5030246;28;20694;-81
2022/10/13 02:57:26;;;;;;;10.60;5.60;;;12.10;99.90;;;;;;5028964;28;20986;-80
2022/10/13 02:59:53;;;;;;;6.07;4.30;;;12.10;99.90;;;;;;5029815;28;20630;-81
2022/10/13 03:02:20;;;;;;;11.13;5.80;;;12.10;99.90;;;;;;5029896;28;21339;-83
2022/10/13 03:04:49;;;;;;;9.10;4.50;;;12.00;99.90;;;;;;5030106;28;20651;-81
2022/10/13 03:07:16;;;;;;;5.87;5.27;;;12.00;99.90;;;;;;5029582;28;21228;-81
2022/10/13 03:09:43;;;;;;;5.47;4.07;;;12.00;99.90;;;;;;5029105;28;20626;-81
2022/10/13 03:12:10;;;;;;;8.13;6.00;;;12.30;99.90;;;;;;5029850;28;20623;-79
2022/10/13 03:14:36;;;;;;;5.13;4.10;;;12.10;99.90;;;;;;5029600;28;20619;-81
2022/10/13 03:17:03;;;;;;;5.10;4.70;;;12.20;99.90;;;;;;5029255;28;21047;-81
2022/10/13 03:19:30;;;;;;;9.57;6.27;;;12.10;99.90;;;;;;5029901;28;20634;-83
2022/10/13 03:21:58;;;;;;;7.10;6.20;;;12.20;99.90;;;;;;5029675;28;20651;-81
2022/10/13 03:24:25;;;;;;;7.87;5.67;;;12.20;99.90;;;;;;5029910;28;20683;-81
2022/10/13 03:26:52;;;;;;;6.77;4.43;;;12.30;99.90;;;;;;5029122;28;21359;-81
2022/10/13 03:29:19;;;;;;;6.53;4.70;;;12.20;99.90;;;;;;5029372;28;20619;-81
2022/10/13 03:31:46;;;;;;;8.83;4.10;;;12.20;99.90;;;;;;5028020;28;20710;-81
2022/10/13 03:34:15;;;;;;;9.20;6.07;;;12.30;99.90;;;;;;5029585;28;20630;-80
2022/10/13 03:36:43;;;;;;;8.63;6.20;;;12.30;99.90;;;;;;5029515;28;20630;-82
2022/10/13 03:39:12;;;;;;;5.87;5.00;;;12.20;99.90;;;;;;5022701;28;20626;-81
2022/10/13 03:41:39;;;;;;;6.07;4.93;;;12.20;99.90;;;;;;5009239;28;20642;-81
2022/10/13 03:44:06;;;;;;;7.03;5.43;;;12.20;99.90;;;;;;5009655;28;20654;-80
2022/10/13 03:46:33;;;;;;;6.27;4.63;;;12.20;99.90;;;;;;5009513;28;20615;-81
2022/10/13 03:49:00;;;;;;;11.03;5.03;;;12.30;99.90;;;;;;5020786;28;20631;-81
2022/10/13 03:51:27;;;;;;;6.80;4.30;;;12.30;99.90;;;;;;5030077;28;20629;-81
2022/10/13 03:53:54;;;;;;;6.43;5.00;;;12.20;99.90;;;;;;5028919;28;20629;-81
2022/10/13 03:56:24;;;;;;;8.07;5.67;;;12.30;99.90;;;;;;5028986;28;20665;-79
2022/10/13 03:58:55;;;;;;;8.57;5.73;;;12.20;99.90;;;;;;5028343;28;21207;-81
2022/10/13 04:01:24;;;;;;;5.33;4.20;;;12.20;99.90;;;;;;5029311;28;20611;-81
2022/10/13 04:03:52;;;;;;;7.07;5.50;;;12.20;99.90;;;;;;5028964;28;20733;-81
2022/10/13 04:06:19;;;;;;;6.00;5.40;;;12.00;99.90;;;;;;5029210;28;20670;-79
2022/10/13 04:08:46;;;;;;;7.63;5.27;;;12.10;99.90;;;;;;5027514;28;20623;-81
2022/10/13 04:11:15;;;;;;;4.47;3.93;;;12.10;99.90;;;;;;5027916;28;20611;-81
2022/10/13 04:13:44;;;;;;;7.67;6.57;;;12.10;99.90;;;;;;5029047;28;20975;-82
2022/10/13 04:16:15;;;;;;;5.50;4.37;;;12.10;99.90;;;;;;5028866;28;20627;-81
2022/10/13 04:18:42;;;;;;;9.50;5.00;;;12.20;99.90;;;;;;5027984;28;21185;-81
2022/10/13 04:21:10;;;;;;;9.30;4.80;;;12.20;99.90;;;;;;5029053;28;20660;-82
2022/10/13 04:23:37;;;;;;;7.97;4.80;;;12.20;99.90;;;;;;5028652;28;20615;-81
2022/10/13 04:26:05;;;;;;;5.10;3.70;;;12.10;99.90;;;;;;5028721;28;20662;-81
2022/10/13 04:28:34;;;;;;;5.60;4.40;;;12.10;99.90;;;;;;5028488;28;20618;-80
2022/10/13 04:31:03;;;;;;;6.33;5.10;;;12.20;99.90;;;;;;5028549;28;20976;-81
2022/10/13 04:33:30;;;;;;;6.47;4.77;;;12.10;99.90;;;;;;5028318;28;20630;-83
2022/10/13 04:35:57;;;;;;;9.67;4.60;;;12.10;99.90;;;;;;5028253;28;20626;-81
2022/10/13 04:38:24;;;;;;;6.37;4.63;;;12.00;99.90;;;;;;5027441;28;20619;-81
2022/10/13 04:40:50;;;;;;;4.77;4.37;;;12.10;99.90;;;;;;5008559;28;20636;-81
2022/10/13 04:43:17;;;;;;;6.40;4.43;;;12.00;99.90;;;;;;5008577;28;20644;-81
2022/10/13 04:45:44;;;;;;;7.70;5.70;;;12.00;99.90;;;;;;5009034;28;20655;-81
2022/10/13 04:48:13;;;;;;;7.50;5.27;;;12.00;99.90;;;;;;5013136;28;20633;-81
2022/10/13 04:50:40;;;;;;;5.17;4.57;;;12.10;99.90;;;;;;5028128;28;20725;-81
2022/10/13 04:53:07;;;;;;;3.80;3.00;;;12.10;99.90;;;;;;5028347;28;20622;-81
2022/10/13 04:55:36;;;;;;;11.70;5.40;;;12.10;99.90;;;;;;5028248;28;20977;-79
2022/10/13 04:58:03;;;;;;;7.57;5.20;;;12.10;99.90;;;;;;5027906;28;20622;-81
2022/10/13 05:00:29;;;;;;;7.40;4.37;;;12.10;99.90;;;;;;5028162;28;20623;-83
2022/10/13 05:02:57;;;;;;;8.53;4.67;;;;;;;;;;5027452;28;20657;-81
2022/10/13 05:05:25;;;;;;;7.50;5.30;;;12.10;99.90;;;;;;5028287;28;20754;-81
2022/10/13 05:07:52;;;;;;;10.37;5.20;;;12.10;99.90;;;;;;5027225;28;21161;-81
2022/10/13 05:10:19;;;;;;;5.87;4.90;;;12.20;99.90;;;;;;5016582;28;20624;-81
2022/10/13 05:12:45;;;;;;;5.27;4.77;;;12.10;99.90;;;;;;5027708;28;21019;-81
2022/10/13 05:15:12;;;;;;;6.47;4.03;;;12.10;99.90;;;;;;5028543;28;21172;-82
2022/10/13 05:17:39;;;;;;;7.10;4.10;;;12.00;99.90;;;;;;5026763;28;20641;-81
2022/10/13 05:20:06;;;;;;;5.00;4.50;;;11.90;99.90;;;;;;5019430;28;20636;-81
2022/10/13 05:22:35;;;;;;;5.57;4.47;;;12.00;99.90;;;;;;5011563;28;20615;-81
2022/10/13 05:25:02;;;;;;;6.33;4.57;;;11.90;99.90;;;;;;5030355;28;20998;-81
2022/10/13 05:27:28;;;;;;;5.47;4.53;;;12.00;99.90;;;;;;5031282;28;20622;-81
2022/10/13 05:29:55;;;;;;;5.73;4.63;;;11.90;99.90;;;;;;5031880;28;20631;-80
2022/10/13 05:32:22;;;;;;;4.00;3.57;;;11.80;99.90;;;;;;5031731;28;21242;-81
2022/10/13 05:34:49;;;;;;;8.20;4.03;;;11.80;99.90;;;;;;5032233;28;20730;-81
2022/10/13 05:37:17;;;;;;;6.10;3.20;;;11.90;99.90;;;;;;5031629;28;20623;-81
2022/10/13 05:39:45;;;;;;;8.70;4.50;;;11.80;99.90;;;;;;5020625;28;20644;-81
2022/10/13 05:42:12;;;;;;;4.30;3.90;;;11.80;99.90;;;;;;5012558;28;20723;-82
2022/10/13 05:44:39;;;;;;;4.30;3.90;;;11.80;99.90;;;;;;5012373;28;20608;-81
2022/10/13 05:47:05;;;;;;;10.00;5.17;;;11.70;99.90;;;;;;5011810;28;21286;-82
2022/10/13 05:49:35;;;;;;;5.97;4.83;;;11.80;99.90;;;;;;5028160;28;20689;-81
2022/10/13 05:52:03;;;;;;;21.10;5.83;;;11.70;99.90;;;;;;5031963;28;20650;-82
2022/10/13 05:54:34;;;;;;;5.90;4.57;;;11.80;99.90;;;;;;5031600;28;21164;-81
2022/10/13 05:57:06;;;;;;;7.10;5.20;;;11.80;99.90;;;;;;5022701;28;20994;-81
2022/10/13 05:59:37;;;;;;;4.57;3.63;;;11.80;99.90;;;;;;5024273;28;20623;-81
2022/10/13 06:02:05;;;;;;;5.07;4.57;;;11.70;99.90;;;;;;5011761;28;20680;-81
2022/10/13 06:04:37;;;;;;;4.53;3.53;;;11.70;99.90;;;;;;5018316;28;21047;-81
2022/10/13 06:07:04;;;;;;;5.50;4.23;;;11.70;99.90;;;;;;5030797;28;20641;-81
2022/10/13 06:09:34;;;;;;;7.13;4.83;;;11.70;99.90;;;;;;5030847;28;20637;-82
2022/10/13 06:12:03;;;;;;;5.70;3.97;;;11.70;99.90;;;;;;5030305;28;20623;-82
2022/10/13 06:14:30;;;;;;;8.00;4.67;;;11.80;99.90;;;;;;5030578;28;20628;-82
2022/10/13 06:16:56;;;;;;;5.80;3.90;;;11.80;99.90;;;;;;5030036;28;20615;-81
2022/10/13 06:19:23;;;;;;;4.20;3.60;;;11.80;99.90;;;;;;5029916;28;21180;-81
2022/10/13 06:21:50;;;;;;;6.20;5.37;;;11.80;99.90;;;;;;5030628;28;20615;-81
2022/10/13 06:24:18;;;;;;;5.00;4.30;;;11.80;99.90;;;;;;5030049;28;20635;-81
2022/10/13 06:26:44;;;;;;;8.27;5.37;;;11.80;99.90;;;;;;5030098;28;20654;-81
2022/10/13 06:29:12;;;;;;;4.97;4.47;;;11.80;99.90;;;;;;5030794;28;21264;-81
2022/10/13 06:31:39;;;;;;;5.77;4.47;;;11.90;99.90;;;;;;5021117;28;20729;-81
2022/10/13 06:34:06;;;;;;;5.93;5.40;;;11.90;99.90;;;;;;5041907;28;20717;-81
2022/10/13 06:36:33;;;;;;;8.00;7.07;;;11.90;99.90;;;;;;5020601;28;20743;-82
2022/10/13 06:39:00;;;;;;;7.97;5.13;;;11.90;99.90;;;;;;5021191;28;20719;-81
2022/10/13 06:41:27;;;;;;;9.03;4.80;;;11.90;99.90;;;;;;5013518;28;20765;-81
2022/10/13 06:43:54;;;;;;;8.90;5.83;;;11.90;99.90;;;;;;5030618;28;20670;-81
2022/10/13 06:46:22;;;;;;;6.60;4.93;;;11.90;99.90;;;;;;5030422;28;20749;-80
2022/10/13 06:48:50;;;;;;;6.50;3.93;;;12.00;99.90;;;;;;5029578;28;20881;-80
2022/10/13 06:51:17;;;;;;;6.10;3.60;;;12.10;99.90;;;;;;5029624;28;20618;-80
2022/10/13 06:53:44;;;;;;;8.13;6.30;;;12.10;99.90;;;;;;5031028;28;20625;-80
2022/10/13 06:56:11;;;;;;;8.60;5.53;;;12.10;99.90;;;;;;5021671;28;21337;-80
2022/10/13 06:58:38;;;;;;;11.53;4.63;;;12.10;99.90;;;;;;5016605;28;20654;-81
2022/10/13 07:01:06;;;;;;;5.63;3.90;;;12.10;99.90;;;;;;5030062;28;20661;-80
2022/10/13 07:03:35;;;;;;;8.53;4.70;;;12.10;99.90;;;;;;5029879;28;20673;-80
2022/10/13 07:06:04;;;;;;;4.87;4.40;;;12.20;99.90;;;;;;5029164;28;20730;-81
2022/10/13 07:08:31;;;;;;;6.33;3.43;;;12.10;99.90;;;;;;5029749;28;20677;-81
2022/10/13 07:10:58;;;;;;;4.10;3.07;;;12.20;99.90;;;;;;5030307;28;20629;-80
2022/10/13 07:13:25;;;;;;;4.07;3.57;;;12.20;99.90;;;;;;5029516;28;21030;-80
2022/10/13 07:15:52;;;;;;;8.17;6.03;;;12.50;99.90;;;;;;5029705;28;20653;-80
2022/10/13 07:18:19;;;;;;;5.80;4.00;;;12.20;99.90;;;;;;5017787;28;20623;-80
2022/10/13 07:20:47;;;;;;;5.77;4.00;;;12.30;99.90;;;;;;5010203;28;20632;-80
2022/10/13 07:23:14;;;;;;;9.47;5.17;;;12.30;99.90;;;;;;5013062;28;21005;-80
2022/10/13 07:25:40;;;;;;;7.60;3.80;;;12.30;99.90;;;;;;5029673;28;20991;-79
2022/10/13 07:28:07;;;;;;;5.33;4.73;;;12.30;99.90;;;;;;5029156;28;20730;-80
2022/10/13 07:30:34;;;;;;;8.00;5.43;;;12.30;99.90;;;;;;5029715;28;21036;-82
2022/10/13 07:33:01;;;;;;;5.50;3.80;;;12.30;99.90;;;;;;5028409;28;21241;-80
2022/10/13 07:35:28;;;;;;;8.47;6.17;;;12.40;99.90;;;;;;5029427;28;20739;-80
2022/10/13 07:37:56;;;;;;;6.33;3.47;;;12.40;99.90;;;;;;5028779;28;20673;-79
2022/10/13 07:40:23;;;;;;;6.80;4.23;;;12.40;99.90;;;;;;5012863;28;20734;-80
2022/10/13 07:42:50;;;;;;;7.00;4.77;;;12.40;99.90;;;;;;5010134;28;20624;-81
2022/10/13 07:45:17;;;;;;;5.63;4.10;;;12.40;99.90;;;;;;5008674;28;20624;-80
2022/10/13 07:47:45;;;;;;;7.67;4.87;;;12.70;99.90;;;;;;5010510;28;20767;-79
2022/10/13 07:50:12;;;;;;;6.43;3.87;;;12.50;99.90;;;;;;5029399;28;20625;-81
2022/10/13 07:52:39;;;;;;;4.93;4.37;;;12.60;99.90;;;;;;5014416;28;20751;-80
2022/10/13 07:55:08;;;;;;;5.80;4.23;;;12.60;99.90;;;;;;5009929;28;21058;-80
2022/10/13 07:57:35;;;;;;;5.17;4.27;;;12.60;99.90;;;;;;5009523;28;20616;-80
2022/10/13 08:00:02;;;;;;;7.40;3.73;;;12.60;99.90;;;;;;5023030;28;20731;-80
2022/10/13 08:02:29;;;;;;;6.47;4.07;;;12.70;99.90;;;;;;5009658;28;20636;-81
2022/10/13 08:04:56;;;;;;;7.43;4.90;;;12.70;99.90;;;;;;5017911;28;21187;-80
2022/10/13 08:07:23;;;;;;;7.37;5.20;;;12.80;99.90;;;;;;5025259;28;20779;-80
2022/10/13 08:09:49;;;;;;;5.33;4.70;;;12.80;99.90;;;;;;5009990;28;20738;-80
2022/10/13 08:12:18;;;;;;;7.33;5.30;;;12.90;99.90;;;;;;5008936;28;20634;-80
2022/10/13 08:14:44;;;;;;;5.10;4.00;;;12.90;99.90;;;;;;5009053;28;21091;-80
2022/10/13 08:17:11;;;;;;;4.70;3.93;;;13.00;99.90;;;;;;5019069;28;21174;-81
2022/10/13 08:19:38;;;;;;;6.27;4.07;;;13.00;99.90;;;;;;5008096;28;20707;-80
2022/10/13 08:22:05;;;;;;;3.10;2.80;;;13.10;99.90;;;;;;5009115;28;20663;-79
2022/10/13 08:24:31;;;;;;;5.57;3.77;;;13.10;99.90;;;;;;5022851;28;20726;-81
2022/10/13 08:26:58;;;;;;;4.50;4.10;;;13.20;99.90;;;;;;5028393;28;21204;-81
2022/10/13 08:29:26;;;;;;;4.87;4.47;;;13.20;99.90;;;;;;5028544;28;20742;-80
2022/10/13 08:31:54;;;;;;;4.53;4.13;;;13.20;99.90;;;;;;5028996;28;20726;-80
2022/10/13 08:34:21;;;;;;;7.37;3.63;;;13.20;99.90;;;;;;5029054;28;20625;-81
2022/10/13 08:36:51;;;;;;;4.67;3.23;;;13.30;99.90;;;;;;5029114;28;21147;-80
2022/10/13 08:39:18;;;;;;;4.97;3.97;;;13.30;99.90;;;;;;5020961;28;20870;-80
2022/10/13 08:41:45;;;;;;;3.20;2.20;;;13.40;99.90;;;;;;5008054;28;20807;-80
2022/10/13 08:44:20;;;;;;;4.87;4.40;;;13.40;99.90;;;;;;5009293;28;21128;-81
2022/10/13 08:46:56;;;;;;;4.67;4.10;;;13.50;99.90;;;;;;5008721;28;20648;-79
2022/10/13 08:49:23;;;;;;;4.50;3.60;;;13.60;99.90;;;;;;5023966;28;20622;-81
2022/10/13 08:51:50;;;;;;;4.00;3.20;;;13.60;99.90;;;;;;5028832;28;20938;-80
2022/10/13 08:54:21;;;;;;;5.30;3.47;;;13.60;99.90;;;;;;5028428;28;21015;-80
2022/10/13 08:56:49;;;;;;;3.57;2.90;;;13.70;99.90;;;;;;5027537;28;20615;-81
2022/10/13 08:59:17;;;;;;;3.93;2.70;;;13.70;99.90;;;;;;5027995;28;21090;-80
2022/10/13 09:01:47;;;;;;;10.50;3.30;;;13.70;99.90;;;;;;5028630;28;20619;-81
2022/10/13 09:04:29;;;;;;;3.43;3.23;;;13.70;99.90;;;;;;5026531;28;20627;-81
2022/10/13 09:07:02;;;;;;;5.23;2.60;;;13.70;99.90;;;;;;5008877;28;20651;-81
2022/10/13 09:09:29;;;;;;;3.83;3.30;;;13.80;99.90;;;;;;5009656;28;20711;-82
2022/10/13 09:11:56;;;;;;;3.03;2.67;;;13.80;99.90;;;;;;5009065;28;20715;-81
2022/10/13 09:14:26;;;;;;;4.00;3.40;;;13.90;99.90;;;;;;5009216;28;20615;-81
2022/10/13 09:16:54;;;;;;;3.73;3.40;;;14.00;99.90;;;;;;5020911;28;20623;-80
2022/10/13 09:19:26;;;;;;;3.10;2.80;;;14.00;99.90;;;;;;5027967;28;20726;-80
2022/10/13 09:21:55;;;;;;;3.20;2.33;;;14.10;99.90;;;;;;5028460;28;20669;-81
2022/10/13 09:24:23;;;;;;;3.47;2.67;;;14.10;99.90;;;;;;5028595;28;20627;-81
2022/10/13 09:27:02;;;;;;;5.47;2.47;;;14.10;99.90;;;;;;5027874;28;20638;-81
2022/10/13 09:29:29;;;;;;;3.00;2.43;;;14.10;99.90;;;;;;5027803;28;20993;-81
2022/10/13 09:32:14;;;;;;;3.33;3.03;;;14.20;99.90;;;;;;5028444;28;20623;-81
2022/10/13 09:34:43;;;;;;;5.33;3.40;;;14.20;99.90;;;;;;5028204;28;20629;-80
2022/10/13 09:37:19;;;;;;;3.20;3.00;;;14.30;99.90;;;;;;5028006;28;21334;-82
2022/10/13 09:39:47;;;;;;;2.87;2.67;;;14.30;99.90;;;;;;5016269;28;20636;-81
2022/10/13 09:42:23;;;;;;;3.63;3.33;;;14.30;99.90;;;;;;5017478;28;20629;-81
2022/10/13 09:44:58;;;;;;;3.10;2.67;;;14.30;99.90;;;;;;5028582;28;20658;-81
2022/10/13 09:47:28;;;;;;;3.50;2.97;;;14.40;99.90;;;;;;5027521;28;20757;-81
2022/10/13 09:50:03;;;;;;;2.67;2.00;;;14.40;99.90;;;;;;5028260;28;20630;-82
2022/10/13 09:52:30;;;;;;;5.97;2.23;;;14.40;99.90;;;;;;5027629;28;20619;-82
2022/10/13 09:54:59;;;;;;;5.30;3.43;;;14.50;99.90;;;;;;5028146;28;20704;-82
2022/10/13 09:57:34;;;;;;;3.43;2.50;;;14.50;99.90;;;;;;5028059;28;20657;-80
2022/10/13 10:00:15;;;;;;;4.93;2.37;;;14.50;99.90;;;;;;5028063;28;20633;-80
2022/10/13 10:02:48;;;;;;;2.90;2.23;;;14.60;99.90;;;;;;5026885;28;21186;-81
2022/10/13 10:05:22;;;;;;;3.83;2.80;;;14.60;99.90;;;;;;5017527;28;21007;-82
2022/10/13 10:07:50;;;;;;;5.33;3.30;;;14.60;99.90;;;;;;5009478;28;20655;-81
2022/10/13 10:10:28;;;;;;;3.20;2.47;;;14.70;99.90;;;;;;5012303;28;20722;-81
2022/10/13 10:12:54;;;;;;;5.13;4.73;;;14.70;99.90;;;;;;5011862;28;20619;-81
2022/10/13 10:15:25;;;;;;;3.53;2.43;;;14.70;99.90;;;;;;5011743;28;20732;-82
2022/10/13 10:17:57;;;;;;;3.97;3.20;;;14.80;99.90;;;;;;5031178;28;20619;-81
2022/10/13 10:20:42;;;;;;;2.37;2.17;;;14.70;99.90;;;;;;5031919;28;20622;-80
2022/10/13 10:23:17;;;;;;;5.10;4.03;;;14.70;99.90;;;;;;5030798;28;21181;-82
2022/10/13 10:25:49;;;;;;;3.87;2.33;;;14.80;99.90;;;;;;5031438;28;20617;-81
2022/10/13 10:28:42;;;;;;;3.47;2.90;;;14.80;99.90;;;;;;5030967;28;20700;-82
2022/10/13 10:31:20;;;;;;;4.17;2.57;;;14.80;99.90;;;;;;5031121;28;20634;-81
2022/10/13 10:33:58;;;;;;;4.03;3.03;;;14.70;99.90;;;;;;5030498;28;20672;-82
2022/10/13 10:36:34;;;;;;;2.20;2.00;;;14.70;99.90;;;;;;5030444;28;20607;-82
2022/10/13 10:39:08;;;;;;;3.70;2.93;;;14.70;99.90;;;;;;5019158;28;20626;-82
2022/10/13 10:41:44;;;;;;;3.47;3.03;;;14.70;99.90;;;;;;5031236;28;20637;-83
2022/10/13 10:44:14;;;;;;;3.47;2.67;;;14.70;99.90;;;;;;5031114;28;20654;-81
2022/10/13 10:46:46;;;;;;;5.83;2.60;;;14.70;99.90;;;;;;5029709;28;20646;-82
2022/10/13 10:49:18;;;;;;;2.90;2.40;;;14.70;99.90;;;;;;5030431;28;20630;-81
2022/10/13 10:51:47;;;;;;;3.10;2.80;;;14.70;99.90;;;;;;5028061;28;20650;-82
2022/10/13 10:54:27;;;;;;;2.93;2.63;;;14.70;99.90;;;;;;5011340;28;20631;-81
2022/10/13 10:56:58;;;;;;;2.97;2.23;;;14.70;99.90;;;;;;5010746;28;20608;-81
2022/10/13 10:59:40;;;;;;;1.90;1.70;;;14.90;99.90;;;;;;5023866;28;21104;-81
2022/10/13 11:02:28;;;;;;;4.40;2.37;;;14.90;99.90;;;;;;5031184;28;20650;-81
2022/10/13 11:04:55;;;;;;;6.00;4.20;;;14.90;99.90;;;;;;5027848;28;20627;-81
2022/10/13 11:07:58;;;;;;;3.67;3.10;;;14.90;99.90;;;;;;5030684;28;20647;-82
2022/10/13 11:10:26;;;;;;;3.10;2.80;;;15.00;99.90;;;;;;5030361;28;20688;-80
2022/10/13 11:13:15;;;;;;;3.87;3.47;;;15.00;99.90;;;;;;5018528;28;20702;-82
2022/10/13 11:15:44;;;;;;;3.63;2.63;;;15.00;99.90;;;;;;5007099;28;20636;-83
2022/10/13 11:18:49;;;;;;;3.63;3.20;;;15.10;99.90;;;;;;5030154;28;20607;-80
2022/10/13 11:21:16;;;;;;;5.17;2.70;;;15.10;99.90;;;;;;5030904;28;20623;-82
2022/10/13 11:23:49;;;;;;;3.30;2.80;;;15.20;99.90;;;;;;5030819;28;20844;-80
2022/10/13 11:26:32;;;;;;;2.97;2.00;;;15.20;99.90;;;;;;5029733;28;20666;-81
2022/10/13 11:28:59;;;;;;;4.40;2.57;;;15.30;99.90;;;;;;5030726;28;20718;-82
2022/10/13 11:31:31;;;;;;;2.93;2.13;;;15.30;99.90;;;;;;5031673;28;20665;-81
2022/10/13 11:34:01;;;;;;;4.00;2.90;;;15.20;99.90;;;;;;5029844;28;20637;-82
2022/10/13 11:36:44;;;;;;;3.13;2.83;;;15.20;99.90;;;;;;5036502;28;20626;-83
2022/10/13 11:39:58;;;;;;;1.97;1.87;;;15.30;99.90;;;;;;5029005;28;20631;-82
2022/10/13 11:42:50;;;;;;;3.67;2.30;;;15.30;99.90;;;;;;5029557;28;20630;-82
2022/10/13 11:45:29;;;;;;;2.67;2.00;;;15.40;99.90;;;;;;5025154;28;20645;-83
2022/10/13 11:48:34;;;;;;;3.03;2.50;;;15.50;99.90;;;;;;5029258;28;20774;-82
2022/10/13 11:51:14;;;;;;;2.47;1.93;;;15.50;99.90;;;;;;5010345;28;20638;-82
2022/10/13 11:53:48;;;;;;;2.53;2.33;;;15.60;99.90;;;;;;5029726;28;20622;-82
2022/10/13 11:56:33;;;;;;;2.80;2.37;;;15.60;99.90;;;;;;5031279;28;20712;-81
2022/10/13 11:58:59;;;;;;;2.40;2.20;;;15.60;99.90;;;;;;5029949;28;20614;-81
2022/10/13 12:01:26;;;;;;;2.83;2.23;;;15.70;99.90;;;;;;5030376;28;20619;-81
2022/10/13 12:03:53;;;;;;;2.50;2.07;;;15.70;99.90;;;;;;5030005;28;20625;-83
2022/10/13 12:06:33;;;;;;;3.53;2.43;;;15.60;99.90;;;;;;5030029;28;20756;-83
2022/10/13 12:09:02;;;;;;;5.00;2.93;;;15.80;99.90;;;;;;5030103;28;20714;-81
2022/10/13 12:11:33;;;;;;;2.87;1.60;;;15.80;99.90;;;;;;5029889;28;20641;-79
2022/10/13 12:14:02;;;;;;;1.67;1.57;;;15.90;99.90;;;;;;5028046;28;21230;-83
2022/10/13 12:16:29;;;;;;;2.73;2.17;;;15.80;99.90;;;;;;5029212;28;20626;-83
2022/10/13 12:19:07;;;;;;;1.87;1.73;;;15.90;99.90;;;;;;5029540;28;20696;-84
2022/10/13 12:21:34;;;;;;;2.37;2.00;;;15.90;99.90;;;;;;5030148;28;20710;-83
2022/10/13 12:24:13;;;;;;;2.37;2.03;;;15.90;99.90;;;;;;5019994;28;20608;-84
2022/10/13 12:26:42;;;;;;;2.80;2.50;;;16.00;99.90;;;;;;5028766;28;20623;-86
2022/10/13 12:29:13;;;;;;;3.13;2.07;;;16.00;99.90;;;;;;5028959;28;20618;-80
2022/10/13 12:31:41;;;;;;;3.20;2.80;;;16.10;99.90;;;;;;5030057;28;20619;-84
2022/10/13 12:34:19;;;;;;;1.93;1.73;;;16.10;99.90;;;;;;5029669;28;20661;-82
2022/10/13 12:36:51;;;;;;;3.60;1.43;;;16.10;99.90;;;;;;5029747;28;20623;-83
2022/10/13 12:39:19;;;;;;;1.60;1.47;;;16.10;99.90;;;;;;5016716;28;20688;-84
2022/10/13 12:41:49;;;;;;;4.83;1.87;;;16.00;99.90;;;;;;5028635;28;20674;-82
2022/10/13 12:44:20;;;;;;;3.80;2.40;;;16.20;99.90;;;;;;5028451;28;20991;-81
2022/10/13 12:46:51;;;;;;;1.83;1.50;;;16.20;99.90;;;;;;5028060;28;20615;-82
2022/10/13 12:49:22;;;;;;;2.83;2.63;;;16.30;99.90;;;;;;5028153;28;20634;-83
2022/10/13 12:51:51;;;;;;;1.60;1.50;;;16.40;99.90;;;;;;5026442;28;20624;-82
2022/10/13 12:54:22;;;;;;;2.57;2.13;;;16.40;99.90;;;;;;5028155;28;20626;-83
2022/10/13 12:56:53;;;;;;;5.33;2.23;;;16.50;99.90;;;;;;5018368;28;20820;-82
2022/10/13 12:59:21;;;;;;;1.97;1.50;;;16.50;99.90;;;;;;5021345;28;20638;-84
2022/10/13 13:01:54;;;;;;;2.23;1.90;;;16.60;99.90;;;;;;5028416;28;20634;-82